createdAt,value
2023-05-19T00:00:11.592Z,10.42
2023-05-19T00:02:38.116Z,10.43
2023-05-19T00:05:04.441Z,10.42
2023-05-19T00:07:30.718Z,10.40
2023-05-19T00:09:57.338Z,10.40
2023-05-19T00:12:23.607Z,10.40
2023-05-19T00:14:50.063Z,10.37
2023-05-19T00:17:16.342Z,10.29
2023-05-19T00:19:42.650Z,10.17
2023-05-19T00:22:08.950Z,10.11
2023-05-19T00:24:35.224Z,10.11
2023-05-19T00:27:01.490Z,10.04
2023-05-19T00:29:27.809Z,10.01
2023-05-19T00:31:54.288Z,9.87
2023-05-19T00:34:20.840Z,9.81
2023-05-19T00:36:47.083Z,9.75
2023-05-19T00:39:13.757Z,9.69
2023-05-19T00:41:40.180Z,9.60
2023-05-19T00:44:06.430Z,9.55
2023-05-19T00:46:32.757Z,9.55
2023-05-19T00:48:59.109Z,9.51
2023-05-19T00:51:25.509Z,9.46
2023-05-19T00:53:52.168Z,9.45
2023-05-19T00:56:18.441Z,9.40
2023-05-19T00:58:44.725Z,9.41
2023-05-19T01:01:11.116Z,9.34
2023-05-19T01:03:37.773Z,9.36
2023-05-19T01:06:04.092Z,9.41
2023-05-19T01:08:30.365Z,9.46
2023-05-19T01:10:57.045Z,9.50
2023-05-19T01:13:23.339Z,9.57
2023-05-19T01:15:49.685Z,9.56
2023-05-19T01:18:16.021Z,9.56
2023-05-19T01:20:42.673Z,9.27
2023-05-19T01:23:09.214Z,9.21
2023-05-19T01:25:35.662Z,9.31
2023-05-19T01:28:01.956Z,9.35
2023-05-19T01:30:28.406Z,9.39
2023-05-19T01:32:55.102Z,9.42
2023-05-19T01:35:21.575Z,9.44
2023-05-19T01:37:47.876Z,9.48
2023-05-19T01:40:14.473Z,9.41
2023-05-19T01:42:40.939Z,9.50
2023-05-19T01:45:07.286Z,9.45
2023-05-19T01:47:33.783Z,9.46
2023-05-19T01:50:00.170Z,9.45
2023-05-19T01:52:26.542Z,9.47
2023-05-19T01:54:53.148Z,9.40
2023-05-19T01:57:19.523Z,9.39
2023-05-19T01:59:45.808Z,9.41
2023-05-19T02:02:12.099Z,9.38
2023-05-19T02:04:38.401Z,9.44
2023-05-19T02:07:04.719Z,9.51
2023-05-19T02:09:30.995Z,9.43
2023-05-19T02:11:57.257Z,9.42
2023-05-19T02:14:23.928Z,9.45
2023-05-19T02:16:50.217Z,9.44
2023-05-19T02:19:16.469Z,9.47
2023-05-19T02:21:42.830Z,9.41
2023-05-19T02:24:09.088Z,9.43
2023-05-19T02:26:35.435Z,9.43
2023-05-19T02:29:01.893Z,9.39
2023-05-19T02:31:28.173Z,9.44
2023-05-19T02:33:54.961Z,9.49
2023-05-19T02:36:21.217Z,9.51
2023-05-19T02:38:47.913Z,9.53
2023-05-19T02:41:14.186Z,9.54
2023-05-19T02:43:40.459Z,9.54
2023-05-19T02:46:06.814Z,9.57
2023-05-19T02:48:33.110Z,9.48
2023-05-19T02:50:59.388Z,9.50
2023-05-19T02:53:25.805Z,9.50
2023-05-19T02:55:52.099Z,9.52
2023-05-19T02:58:18.385Z,9.51
2023-05-19T03:00:44.630Z,9.53
2023-05-19T03:03:11.151Z,9.57
2023-05-19T03:05:37.454Z,9.57
2023-05-19T03:08:03.733Z,9.48
2023-05-19T03:10:30.164Z,9.46
2023-05-19T03:12:56.513Z,9.37
2023-05-19T03:15:22.798Z,9.40
2023-05-19T03:17:49.161Z,9.42
2023-05-19T03:20:15.644Z,9.46
2023-05-19T03:22:41.960Z,9.46
2023-05-19T03:25:08.208Z,9.46
2023-05-19T03:27:34.749Z,9.45
2023-05-19T03:30:01.154Z,9.46
2023-05-19T03:32:27.991Z,9.49
2023-05-19T03:34:54.350Z,9.39
2023-05-19T03:37:20.634Z,9.49
2023-05-19T03:39:46.883Z,9.48
2023-05-19T03:42:13.394Z,9.45
2023-05-19T03:44:40.029Z,9.46
2023-05-19T03:47:06.469Z,9.45
2023-05-19T03:49:33.099Z,9.41
2023-05-19T03:51:59.387Z,9.39
2023-05-19T03:54:25.686Z,9.45
2023-05-19T03:56:52.104Z,9.51
2023-05-19T03:59:18.432Z,9.52
2023-05-19T04:01:44.715Z,9.55
2023-05-19T04:04:11.054Z,9.45
2023-05-19T04:06:37.407Z,9.33
2023-05-19T04:09:03.680Z,9.34
2023-05-19T04:11:30.009Z,9.36
2023-05-19T04:13:56.321Z,9.37
2023-05-19T04:16:22.717Z,9.42
2023-05-19T04:18:49.103Z,9.42
2023-05-19T04:21:15.400Z,9.44
2023-05-19T04:23:41.680Z,9.43
2023-05-19T04:26:08.036Z,9.41
2023-05-19T04:28:34.342Z,9.46
2023-05-19T04:31:00.772Z,9.50
2023-05-19T04:33:27.048Z,9.57
2023-05-19T04:35:53.423Z,9.66
2023-05-19T04:38:19.862Z,9.72
2023-05-19T04:40:46.117Z,9.77
2023-05-19T04:43:12.732Z,9.80
2023-05-19T04:45:39.181Z,9.77
2023-05-19T04:48:05.494Z,9.76
2023-05-19T04:50:31.951Z,9.79
2023-05-19T04:52:58.404Z,9.80
2023-05-19T04:55:25.696Z,9.86
2023-05-19T04:57:52.013Z,9.87
2023-05-19T05:00:18.628Z,9.85
2023-05-19T05:02:44.980Z,9.86
2023-05-19T05:05:11.401Z,9.92
2023-05-19T05:07:39.196Z,9.94
2023-05-19T05:10:05.510Z,10.03
2023-05-19T05:12:31.923Z,10.02
2023-05-19T05:14:58.481Z,10.08
2023-05-19T05:17:24.837Z,9.98
2023-05-19T05:19:51.218Z,10.08
2023-05-19T05:22:17.549Z,10.14
2023-05-19T05:24:43.907Z,10.23
2023-05-19T05:27:10.501Z,10.12
2023-05-19T05:29:37.039Z,10.16
2023-05-19T05:32:03.532Z,10.22
2023-05-19T05:34:30.204Z,10.27
2023-05-19T05:36:56.500Z,10.32
2023-05-19T05:39:22.762Z,10.39
2023-05-19T05:41:49.026Z,10.43
2023-05-19T05:44:15.318Z,10.48
2023-05-19T05:46:41.859Z,10.51
2023-05-19T05:49:08.340Z,10.53
2023-05-19T05:51:34.670Z,10.55
2023-05-19T05:54:00.996Z,10.64
2023-05-19T05:56:27.269Z,10.71
2023-05-19T05:58:53.951Z,10.74
2023-05-19T06:01:20.224Z,10.80
2023-05-19T06:03:46.731Z,10.87
2023-05-19T06:06:13.194Z,10.94
2023-05-19T06:08:39.477Z,10.96
2023-05-19T06:11:05.753Z,11.01
2023-05-19T06:13:32.429Z,11.10
2023-05-19T06:16:00.531Z,11.23
2023-05-19T06:18:28.188Z,11.29
2023-05-19T06:20:54.775Z,11.37
2023-05-19T06:23:21.063Z,11.45
2023-05-19T06:25:47.304Z,11.48
2023-05-19T06:28:13.639Z,11.42
2023-05-19T06:30:40.094Z,11.47
2023-05-19T06:33:06.364Z,11.51
2023-05-19T06:35:32.805Z,11.59
2023-05-19T06:37:59.414Z,11.71
2023-05-19T06:40:25.848Z,11.63
2023-05-19T06:42:52.163Z,11.37
2023-05-19T06:45:18.433Z,11.50
2023-05-19T06:47:44.751Z,11.57
2023-05-19T06:50:11.247Z,11.75
2023-05-19T06:52:37.691Z,11.85
2023-05-19T06:55:04.136Z,12.03
2023-05-19T06:57:30.581Z,12.17
2023-05-19T06:59:56.835Z,12.27
2023-05-19T07:02:23.538Z,12.29
2023-05-19T07:04:49.817Z,12.39
2023-05-19T07:07:16.471Z,12.42
2023-05-19T07:09:42.748Z,12.51
2023-05-19T07:12:09.097Z,12.42
2023-05-19T07:14:35.449Z,12.57
2023-05-19T07:17:02.135Z,12.67
2023-05-19T07:19:28.640Z,12.80
2023-05-19T07:21:55.051Z,12.86
2023-05-19T07:24:21.770Z,12.90
2023-05-19T07:26:48.032Z,12.92
2023-05-19T07:29:14.345Z,12.91
2023-05-19T07:31:40.727Z,12.95
2023-05-19T07:34:07.065Z,12.95
2023-05-19T07:36:33.508Z,12.73
2023-05-19T07:38:59.876Z,13.01
2023-05-19T07:41:26.598Z,12.59
2023-05-19T07:43:53.070Z,12.77
2023-05-19T07:46:19.437Z,13.01
2023-05-19T07:48:46.097Z,13.15
2023-05-19T07:51:12.480Z,13.41
2023-05-19T07:53:38.770Z,13.54
2023-05-19T07:56:05.169Z,13.68
2023-05-19T07:58:31.445Z,13.67
2023-05-19T08:00:57.865Z,13.74
2023-05-19T08:03:24.426Z,13.88
2023-05-19T08:05:51.258Z,14.01
2023-05-19T08:08:17.505Z,13.83
2023-05-19T08:10:43.881Z,13.92
2023-05-19T08:13:10.231Z,13.79
2023-05-19T08:15:36.688Z,13.97
2023-05-19T08:18:03.037Z,14.19
2023-05-19T08:20:29.940Z,14.33
2023-05-19T08:22:56.336Z,14.31
2023-05-19T08:25:22.817Z,13.93
2023-05-19T08:27:49.438Z,13.88
2023-05-19T08:30:15.896Z,13.68
2023-05-19T08:32:42.189Z,13.72
2023-05-19T08:35:08.672Z,13.93
2023-05-19T08:37:35.058Z,13.70
2023-05-19T08:40:01.363Z,14.15
2023-05-19T08:42:27.831Z,14.64
2023-05-19T08:44:54.303Z,15.00
2023-05-19T08:47:20.607Z,15.25
2023-05-19T08:49:46.939Z,15.53
2023-05-19T08:52:13.365Z,15.71
2023-05-19T08:54:39.790Z,15.82
2023-05-19T08:57:06.110Z,15.71
2023-05-19T08:59:32.824Z,15.70
2023-05-19T09:01:59.091Z,15.80
2023-05-19T09:04:26.457Z,15.84
2023-05-19T09:06:53.511Z,15.75
2023-05-19T09:09:20.148Z,15.68
2023-05-19T09:11:46.428Z,15.86
2023-05-19T09:14:12.702Z,15.68
2023-05-19T09:16:38.982Z,15.33
2023-05-19T09:19:05.741Z,15.03
2023-05-19T09:21:32.040Z,14.84
2023-05-19T09:23:58.371Z,15.39
2023-05-19T09:26:24.815Z,15.73
2023-05-19T09:28:51.296Z,15.96
2023-05-19T09:31:17.571Z,16.24
2023-05-19T09:33:45.897Z,16.32
2023-05-19T09:36:12.553Z,16.56
2023-05-19T09:38:41.839Z,16.79
2023-05-19T09:41:10.282Z,16.89
2023-05-19T09:43:36.628Z,16.59
2023-05-19T09:46:03.062Z,16.52
2023-05-19T09:48:29.375Z,15.86
2023-05-19T09:50:55.745Z,16.15
2023-05-19T09:53:22.187Z,16.27
2023-05-19T09:55:48.472Z,16.34
2023-05-19T09:58:15.125Z,16.80
2023-05-19T10:00:41.500Z,17.19
2023-05-19T10:03:07.833Z,17.59
2023-05-19T10:05:34.795Z,17.89
2023-05-19T10:08:01.550Z,18.30
2023-05-19T10:10:28.188Z,18.79
2023-05-19T10:12:54.521Z,18.80
2023-05-19T10:15:23.136Z,19.22
2023-05-19T10:17:49.779Z,19.23
2023-05-19T10:20:16.302Z,19.33
2023-05-19T10:22:42.971Z,19.35
2023-05-19T10:25:09.277Z,19.38
2023-05-19T10:27:35.723Z,19.08
2023-05-19T10:30:02.138Z,18.96
2023-05-19T10:32:28.555Z,19.17
2023-05-19T10:34:54.915Z,19.07
2023-05-19T10:37:21.178Z,19.33
2023-05-19T10:39:47.485Z,19.51
2023-05-19T10:42:13.845Z,19.61
2023-05-19T10:44:40.176Z,19.69
2023-05-19T10:47:06.624Z,19.73
2023-05-19T10:49:32.985Z,19.44
2023-05-19T10:51:59.272Z,19.44
2023-05-19T10:54:25.577Z,19.33
2023-05-19T10:56:52.216Z,19.54
2023-05-19T10:59:18.889Z,19.66
2023-05-19T11:01:45.187Z,19.54
2023-05-19T11:04:11.619Z,19.81
2023-05-19T11:06:38.042Z,19.86
2023-05-19T11:09:04.395Z,20.09
2023-05-19T11:11:32.201Z,20.38
2023-05-19T11:13:59.470Z,20.58
2023-05-19T11:16:27.324Z,20.76
2023-05-19T11:18:53.644Z,20.82
2023-05-19T11:21:20.023Z,21.06
2023-05-19T11:23:46.437Z,21.17
2023-05-19T11:26:12.751Z,21.32
2023-05-19T11:28:39.054Z,21.43
2023-05-19T11:31:05.532Z,21.44
2023-05-19T11:33:31.885Z,21.62
2023-05-19T11:35:58.627Z,21.65
2023-05-19T11:38:25.222Z,21.26
2023-05-19T11:40:51.651Z,21.09
2023-05-19T11:43:17.955Z,21.04
2023-05-19T11:45:44.473Z,20.94
2023-05-19T11:48:10.774Z,19.97
2023-05-19T11:50:37.280Z,19.20
2023-05-19T11:53:03.655Z,18.71
2023-05-19T11:55:30.354Z,18.38
2023-05-19T11:58:03.800Z,17.62
2023-05-19T12:00:31.942Z,17.45
2023-05-19T12:02:58.397Z,17.78
2023-05-19T12:05:24.944Z,17.92
2023-05-19T12:07:51.331Z,18.22
2023-05-19T12:10:17.635Z,18.53
2023-05-19T12:12:43.952Z,18.62
2023-05-19T12:15:10.574Z,18.28
2023-05-19T12:17:37.271Z,17.83
2023-05-19T12:20:03.647Z,17.73
2023-05-19T12:22:30.162Z,17.97
2023-05-19T12:24:56.438Z,17.49
2023-05-19T12:27:22.734Z,17.27
2023-05-19T12:29:48.982Z,17.35
2023-05-19T12:32:15.335Z,17.64
2023-05-19T12:34:41.640Z,18.05
2023-05-19T12:37:08.265Z,18.42
2023-05-19T12:39:34.917Z,18.70
2023-05-19T12:42:01.234Z,19.00
2023-05-19T12:44:27.882Z,19.32
2023-05-19T12:46:54.564Z,19.43
2023-05-19T12:49:20.911Z,19.09
2023-05-19T12:51:47.256Z,19.16
2023-05-19T12:54:13.669Z,19.22
2023-05-19T12:56:40.325Z,19.12
2023-05-19T12:59:06.668Z,19.09
2023-05-19T13:01:33.045Z,19.40
2023-05-19T13:03:59.485Z,19.53
2023-05-19T13:06:26.180Z,19.77
2023-05-19T13:08:52.843Z,19.66
2023-05-19T13:11:19.128Z,19.49
2023-05-19T13:13:45.408Z,19.26
2023-05-19T13:16:11.727Z,19.15
2023-05-19T13:18:38.161Z,19.40
2023-05-19T13:21:04.476Z,19.62
2023-05-19T13:23:30.771Z,19.63
2023-05-19T13:25:57.052Z,19.84
2023-05-19T13:28:23.428Z,19.79
2023-05-19T13:30:49.902Z,19.20
2023-05-19T13:33:16.421Z,19.05
2023-05-19T13:35:42.861Z,18.59
2023-05-19T13:38:09.184Z,18.32
2023-05-19T13:40:35.571Z,17.79
2023-05-19T13:43:01.950Z,17.70
2023-05-19T13:45:28.336Z,17.60
2023-05-19T13:47:54.696Z,18.03
2023-05-19T13:50:20.976Z,18.07
2023-05-19T13:52:47.328Z,18.22
2023-05-19T13:55:13.622Z,18.15
2023-05-19T13:57:41.095Z,17.71
2023-05-19T14:00:08.441Z,18.04
2023-05-19T14:02:34.891Z,18.38
2023-05-19T14:05:01.268Z,18.58
2023-05-19T14:07:27.616Z,18.74
2023-05-19T14:09:54.524Z,18.92
2023-05-19T14:12:27.531Z,18.97
2023-05-19T14:15:01.148Z,18.59
2023-05-19T14:17:27.462Z,18.57
2023-05-19T14:19:53.824Z,18.65
2023-05-19T14:22:20.285Z,18.72
2023-05-19T14:24:46.587Z,18.85
2023-05-19T14:27:13.262Z,18.88
2023-05-19T14:29:40.037Z,18.79
2023-05-19T14:32:06.591Z,18.69
2023-05-19T14:34:33.091Z,18.77
2023-05-19T14:36:59.697Z,18.04
2023-05-19T14:39:26.016Z,18.17
2023-05-19T14:41:52.314Z,18.24
2023-05-19T14:44:18.624Z,18.12
2023-05-19T14:46:45.057Z,18.14
2023-05-19T14:49:11.426Z,18.06
2023-05-19T14:51:37.769Z,18.09
2023-05-19T14:54:04.124Z,18.16
2023-05-19T14:56:30.381Z,18.31
2023-05-19T14:58:56.812Z,18.45
2023-05-19T15:01:23.182Z,18.57
2023-05-19T15:03:49.874Z,18.69
2023-05-19T15:06:19.688Z,18.76
2023-05-19T15:08:46.127Z,18.80
2023-05-19T15:11:12.408Z,18.84
2023-05-19T15:13:38.707Z,18.86
2023-05-19T15:16:15.391Z,18.95
2023-05-19T15:18:43.557Z,18.95
2023-05-19T15:21:10.151Z,18.90
2023-05-19T15:23:36.604Z,19.03
2023-05-19T15:26:03.022Z,19.12
2023-05-19T15:28:29.301Z,18.92
2023-05-19T15:30:56.036Z,18.89
2023-05-19T15:33:22.406Z,18.92
2023-05-19T15:35:48.841Z,18.44
2023-05-19T15:38:15.112Z,18.52
2023-05-19T15:40:41.390Z,18.67
2023-05-19T15:43:07.842Z,18.86
2023-05-19T15:45:34.151Z,18.97
2023-05-19T15:48:01.080Z,18.83
2023-05-19T15:50:27.472Z,18.05
2023-05-19T15:52:53.844Z,17.76
2023-05-19T15:55:20.502Z,17.92
2023-05-19T15:57:46.946Z,18.03
2023-05-19T16:00:13.343Z,18.06
2023-05-19T16:02:39.834Z,17.58
2023-05-19T16:05:06.280Z,17.49
2023-05-19T16:07:32.580Z,17.78
2023-05-19T16:09:58.854Z,17.88
2023-05-19T16:12:25.157Z,17.91
2023-05-19T16:14:51.438Z,17.88
2023-05-19T16:17:17.871Z,17.95
2023-05-19T16:19:44.144Z,17.94
2023-05-19T16:22:10.664Z,17.91
2023-05-19T16:24:37.083Z,17.85
2023-05-19T16:27:04.362Z,17.78
2023-05-19T16:29:30.787Z,17.75
2023-05-19T16:31:57.451Z,17.45
2023-05-19T16:34:24.036Z,16.97
2023-05-19T16:36:50.683Z,16.21
2023-05-19T16:39:17.023Z,16.33
2023-05-19T16:41:43.344Z,16.22
2023-05-19T16:44:09.720Z,16.20
2023-05-19T16:46:36.182Z,16.07
2023-05-19T16:49:02.662Z,15.81
2023-05-19T16:51:28.943Z,15.84
2023-05-19T16:53:55.384Z,15.92
2023-05-19T16:56:21.867Z,15.87
2023-05-19T16:58:48.138Z,15.75
2023-05-19T17:01:14.817Z,15.74
2023-05-19T17:03:41.163Z,15.75
2023-05-19T17:06:07.663Z,15.67
2023-05-19T17:08:34.132Z,15.63
2023-05-19T17:11:00.628Z,15.52
2023-05-19T17:13:26.893Z,15.43
2023-05-19T17:15:53.547Z,15.15
2023-05-19T17:18:19.852Z,15.08
2023-05-19T17:20:46.141Z,14.72
2023-05-19T17:23:12.424Z,14.59
2023-05-19T17:25:38.695Z,14.59
2023-05-19T17:28:05.325Z,14.57
2023-05-19T17:30:32.147Z,14.51
2023-05-19T17:32:58.613Z,14.50
2023-05-19T17:35:26.377Z,14.47
2023-05-19T17:37:53.967Z,14.37
2023-05-19T17:40:20.271Z,14.09
2023-05-19T17:42:47.236Z,14.06
2023-05-19T17:45:13.593Z,14.08
2023-05-19T17:47:40.284Z,14.08
2023-05-19T17:50:06.873Z,14.03
2023-05-19T17:52:33.264Z,14.02
2023-05-19T17:54:59.897Z,13.99
2023-05-19T17:57:26.183Z,13.98
2023-05-19T17:59:52.631Z,13.97
2023-05-19T18:02:19.127Z,13.96
2023-05-19T18:04:45.603Z,13.92
2023-05-19T18:07:11.924Z,13.86
2023-05-19T18:09:38.455Z,13.78
2023-05-19T18:12:04.928Z,13.74
2023-05-19T18:14:31.184Z,13.71
2023-05-19T18:16:57.459Z,13.70
2023-05-19T18:19:23.901Z,13.64
2023-05-19T18:21:50.642Z,13.59
2023-05-19T18:24:17.314Z,13.54
2023-05-19T18:26:43.865Z,13.52
2023-05-19T18:29:10.465Z,13.50
2023-05-19T18:31:36.858Z,13.52
2023-05-19T18:34:03.150Z,13.54
2023-05-19T18:36:29.615Z,13.50
2023-05-19T18:38:55.962Z,13.44
2023-05-19T18:41:22.293Z,13.37
2023-05-19T18:43:48.992Z,13.37
2023-05-19T18:46:15.378Z,13.36
2023-05-19T18:48:41.951Z,13.35
2023-05-19T18:51:08.218Z,13.28
2023-05-19T18:53:34.614Z,13.25
2023-05-19T18:56:00.986Z,13.21
2023-05-19T18:58:27.284Z,13.19
2023-05-19T19:00:54.077Z,13.20
2023-05-19T19:03:20.748Z,13.15
2023-05-19T19:05:47.409Z,13.15
2023-05-19T19:08:13.742Z,13.04
2023-05-19T19:10:40.249Z,13.01
2023-05-19T19:13:06.528Z,13.00
2023-05-19T19:15:32.965Z,12.98
2023-05-19T19:17:59.332Z,12.97
2023-05-19T19:20:25.772Z,12.96
2023-05-19T19:22:52.067Z,12.97
2023-05-19T19:25:18.510Z,12.97
2023-05-19T19:27:45.444Z,12.94
2023-05-19T19:30:11.780Z,12.96
2023-05-19T19:32:38.154Z,12.93
2023-05-19T19:35:04.517Z,12.91
2023-05-19T19:37:30.970Z,12.72
2023-05-19T19:39:57.604Z,12.66
2023-05-19T19:42:23.970Z,12.71
2023-05-19T19:44:50.267Z,12.62
2023-05-19T19:47:16.708Z,12.59
2023-05-19T19:49:43.048Z,12.59
2023-05-19T19:52:09.340Z,12.60
2023-05-19T19:54:35.871Z,12.63
2023-05-19T19:57:02.149Z,12.65
2023-05-19T19:59:28.413Z,12.67
2023-05-19T20:01:55.116Z,12.63
2023-05-19T20:04:21.536Z,12.63
2023-05-19T20:06:48.205Z,12.64
2023-05-19T20:09:14.557Z,12.66
2023-05-19T20:11:40.992Z,12.65
2023-05-19T20:14:07.268Z,12.64
2023-05-19T20:16:33.623Z,12.65
2023-05-19T20:18:59.957Z,12.61
2023-05-19T20:21:26.352Z,12.65
2023-05-19T20:23:52.650Z,12.60
2023-05-19T20:26:19.117Z,12.56
2023-05-19T20:28:45.376Z,12.56
2023-05-19T20:31:11.706Z,12.57
2023-05-19T20:33:38.152Z,12.47
2023-05-19T20:36:04.590Z,12.51
2023-05-19T20:38:30.846Z,12.58
2023-05-19T20:40:57.537Z,12.52
2023-05-19T20:43:23.818Z,12.47
2023-05-19T20:45:50.245Z,12.44
2023-05-19T20:48:16.702Z,12.40
2023-05-19T20:50:43.193Z,12.39
2023-05-19T20:53:09.803Z,12.38
2023-05-19T20:55:36.218Z,12.40
2023-05-19T20:58:02.602Z,12.42
2023-05-19T21:00:30.384Z,12.43
2023-05-19T21:02:57.077Z,12.40
2023-05-19T21:05:23.638Z,12.39
2023-05-19T21:07:49.916Z,12.41
2023-05-19T21:10:16.187Z,12.39
2023-05-19T21:12:42.668Z,12.34
2023-05-19T21:15:08.913Z,12.36
2023-05-19T21:17:35.336Z,12.33
2023-05-19T21:20:01.630Z,12.35
2023-05-19T21:22:27.932Z,12.34
2023-05-19T21:24:54.290Z,12.34
2023-05-19T21:27:20.797Z,12.32
2023-05-19T21:29:47.174Z,12.31
2023-05-19T21:32:13.488Z,12.26
2023-05-19T21:34:39.767Z,12.25
2023-05-19T21:37:06.067Z,12.24
2023-05-19T21:39:32.730Z,12.21
2023-05-19T21:41:59.365Z,12.21
2023-05-19T21:44:25.683Z,12.21
2023-05-19T21:46:52.265Z,12.20
2023-05-19T21:49:19.003Z,12.26
2023-05-19T21:51:45.304Z,12.22
2023-05-19T21:54:12.036Z,12.19
2023-05-19T21:56:38.306Z,12.15
2023-05-19T21:59:04.569Z,12.12
2023-05-19T22:01:30.897Z,12.06
2023-05-19T22:03:57.470Z,12.03
2023-05-19T22:06:24.100Z,11.98
2023-05-19T22:08:50.554Z,11.92
2023-05-19T22:11:16.826Z,11.88
2023-05-19T22:13:43.112Z,11.82
2023-05-19T22:16:09.449Z,11.78
2023-05-19T22:18:35.780Z,11.70
2023-05-19T22:21:02.098Z,11.64
2023-05-19T22:23:28.623Z,11.53
2023-05-19T22:25:54.937Z,11.48
2023-05-19T22:28:21.284Z,11.38
2023-05-19T22:30:49.933Z,11.27
2023-05-19T22:33:16.254Z,11.21
2023-05-19T22:35:42.773Z,11.15
2023-05-19T22:38:10.577Z,11.15
2023-05-19T22:40:37.450Z,11.16
2023-05-19T22:43:03.988Z,11.18
2023-05-19T22:45:30.341Z,11.21
2023-05-19T22:47:56.639Z,11.17
2023-05-19T22:50:22.989Z,11.18
2023-05-19T22:52:49.268Z,11.19
2023-05-19T22:55:15.847Z,11.21
2023-05-19T22:57:42.289Z,11.21
2023-05-19T23:00:08.729Z,11.21
2023-05-19T23:02:35.376Z,11.21
2023-05-19T23:05:01.750Z,11.16
2023-05-19T23:07:28.050Z,11.12
2023-05-19T23:09:54.425Z,11.02
2023-05-19T23:12:20.688Z,10.93
2023-05-19T23:14:47.047Z,10.89
2023-05-19T23:17:13.616Z,10.88
2023-05-19T23:19:40.279Z,10.83
2023-05-19T23:22:06.623Z,10.74
2023-05-19T23:24:32.894Z,10.64
2023-05-19T23:26:59.465Z,10.60
2023-05-19T23:29:25.792Z,10.51
2023-05-19T23:31:52.224Z,10.46
2023-05-19T23:34:18.485Z,10.43
2023-05-19T23:36:44.797Z,10.38
2023-05-19T23:39:11.055Z,10.33
2023-05-19T23:41:37.454Z,10.30
2023-05-19T23:44:03.933Z,10.29
2023-05-19T23:46:30.347Z,10.25
2023-05-19T23:48:56.773Z,10.15
2023-05-19T23:51:23.343Z,10.05
2023-05-19T23:53:49.653Z,10.03
2023-05-19T23:56:16.313Z,10.02
2023-05-19T23:58:42.605Z,10.02
